sensor_id;sensor_type;location;lat;lon;timestamp;P1;durP1;ratioP1;P2;durP2;ratioP2
21492;SDS011;10908;50.690;4.400;2023-07-31T00:00:05;13.68;;;3.85;;
21492;SDS011;10908;50.690;4.400;2023-07-31T00:02:33;14.32;;;3.38;;
21492;SDS011;10908;50.690;4.400;2023-07-31T00:04:59;12.45;;;3.60;;
21492;SDS011;10908;50.690;4.400;2023-07-31T00:07:25;10.77;;;3.42;;
21492;SDS011;10908;50.690;4.400;2023-07-31T00:09:51;12.90;;;3.42;;
21492;SDS011;10908;50.690;4.400;2023-07-31T00:12:18;15.15;;;3.80;;
21492;SDS011;10908;50.690;4.400;2023-07-31T00:14:44;12.68;;;3.90;;
21492;SDS011;10908;50.690;4.400;2023-07-31T00:17:10;10.25;;;3.65;;
21492;SDS011;10908;50.690;4.400;2023-07-31T00:19:36;10.73;;;3.67;;
21492;SDS011;10908;50.690;4.400;2023-07-31T00:22:02;14.63;;;3.85;;
21492;SDS011;10908;50.690;4.400;2023-07-31T00:24:27;9.75;;;3.45;;
21492;SDS011;10908;50.690;4.400;2023-07-31T00:26:53;10.02;;;3.42;;
21492;SDS011;10908;50.690;4.400;2023-07-31T00:29:18;12.10;;;3.90;;
21492;SDS011;10908;50.690;4.400;2023-07-31T00:31:44;16.60;;;3.90;;
21492;SDS011;10908;50.690;4.400;2023-07-31T00:34:10;13.02;;;3.63;;
21492;SDS011;10908;50.690;4.400;2023-07-31T00:36:35;12.65;;;3.88;;
21492;SDS011;10908;50.690;4.400;2023-07-31T00:39:01;18.30;;;3.95;;
21492;SDS011;10908;50.690;4.400;2023-07-31T00:41:27;15.38;;;3.78;;
21492;SDS011;10908;50.690;4.400;2023-07-31T00:43:52;12.40;;;3.75;;
21492;SDS011;10908;50.690;4.400;2023-07-31T00:46:18;9.68;;;3.33;;
21492;SDS011;10908;50.690;4.400;2023-07-31T00:48:43;12.80;;;3.95;;
21492;SDS011;10908;50.690;4.400;2023-07-31T00:51:10;13.15;;;3.90;;
21492;SDS011;10908;50.690;4.400;2023-07-31T00:53:36;15.65;;;4.03;;
21492;SDS011;10908;50.690;4.400;2023-07-31T00:56:02;10.55;;;3.65;;
21492;SDS011;10908;50.690;4.400;2023-07-31T00:58:29;13.27;;;3.80;;
21492;SDS011;10908;50.690;4.400;2023-07-31T01:00:55;15.25;;;3.92;;
21492;SDS011;10908;50.690;4.400;2023-07-31T01:03:20;15.57;;;4.45;;
21492;SDS011;10908;50.690;4.400;2023-07-31T01:06:12;15.05;;;4.00;;
21492;SDS011;10908;50.690;4.400;2023-07-31T01:09:06;12.57;;;3.80;;
21492;SDS011;10908;50.690;4.400;2023-07-31T01:11:48;14.02;;;4.07;;
21492;SDS011;10908;50.690;4.400;2023-07-31T01:14:22;13.45;;;4.25;;
21492;SDS011;10908;50.690;4.400;2023-07-31T01:16:47;12.88;;;4.35;;
21492;SDS011;10908;50.690;4.400;2023-07-31T01:19:14;13.45;;;4.45;;
21492;SDS011;10908;50.690;4.400;2023-07-31T01:24:54;11.90;;;3.95;;
21492;SDS011;10908;50.690;4.400;2023-07-31T01:27:34;12.98;;;4.07;;
21492;SDS011;10908;50.690;4.400;2023-07-31T01:30:08;12.38;;;3.60;;
21492;SDS011;10908;50.690;4.400;2023-07-31T01:32:44;11.02;;;4.10;;
21492;SDS011;10908;50.690;4.400;2023-07-31T01:35:13;9.95;;;3.92;;
21492;SDS011;10908;50.690;4.400;2023-07-31T01:37:39;11.60;;;4.20;;
21492;SDS011;10908;50.690;4.400;2023-07-31T01:40:06;11.20;;;3.88;;
21492;SDS011;10908;50.690;4.400;2023-07-31T01:42:32;10.02;;;3.38;;
21492;SDS011;10908;50.690;4.400;2023-07-31T01:44:57;15.23;;;4.18;;
21492;SDS011;10908;50.690;4.400;2023-07-31T01:47:23;10.65;;;4.10;;
21492;SDS011;10908;50.690;4.400;2023-07-31T01:49:49;12.05;;;3.95;;
21492;SDS011;10908;50.690;4.400;2023-07-31T01:52:15;11.98;;;4.13;;
21492;SDS011;10908;50.690;4.400;2023-07-31T01:54:40;11.80;;;4.03;;
21492;SDS011;10908;50.690;4.400;2023-07-31T01:57:06;9.63;;;4.13;;
21492;SDS011;10908;50.690;4.400;2023-07-31T01:59:32;11.13;;;4.13;;
21492;SDS011;10908;50.690;4.400;2023-07-31T02:01:57;15.02;;;4.25;;
21492;SDS011;10908;50.690;4.400;2023-07-31T02:04:23;11.25;;;3.70;;
21492;SDS011;10908;50.690;4.400;2023-07-31T02:06:49;10.82;;;3.97;;
21492;SDS011;10908;50.690;4.400;2023-07-31T02:09:14;11.40;;;3.80;;
21492;SDS011;10908;50.690;4.400;2023-07-31T02:11:40;9.85;;;3.83;;
21492;SDS011;10908;50.690;4.400;2023-07-31T02:14:06;9.65;;;3.80;;
21492;SDS011;10908;50.690;4.400;2023-07-31T02:16:31;11.65;;;3.78;;
21492;SDS011;10908;50.690;4.400;2023-07-31T02:18:57;10.70;;;3.63;;
21492;SDS011;10908;50.690;4.400;2023-07-31T02:21:22;10.27;;;3.55;;
21492;SDS011;10908;50.690;4.400;2023-07-31T02:23:48;9.93;;;3.70;;
21492;SDS011;10908;50.690;4.400;2023-07-31T02:26:14;11.85;;;4.00;;
21492;SDS011;10908;50.690;4.400;2023-07-31T02:28:39;9.05;;;3.53;;
21492;SDS011;10908;50.690;4.400;2023-07-31T02:31:07;10.15;;;3.85;;
21492;SDS011;10908;50.690;4.400;2023-07-31T02:33:33;9.65;;;3.25;;
21492;SDS011;10908;50.690;4.400;2023-07-31T02:35:59;10.13;;;3.38;;
21492;SDS011;10908;50.690;4.400;2023-07-31T02:38:25;8.82;;;3.35;;
21492;SDS011;10908;50.690;4.400;2023-07-31T02:40:50;8.63;;;3.15;;
21492;SDS011;10908;50.690;4.400;2023-07-31T02:43:16;8.90;;;3.58;;
21492;SDS011;10908;50.690;4.400;2023-07-31T02:45:41;7.95;;;2.95;;
21492;SDS011;10908;50.690;4.400;2023-07-31T02:48:07;9.95;;;3.42;;
21492;SDS011;10908;50.690;4.400;2023-07-31T02:50:33;9.52;;;3.47;;
21492;SDS011;10908;50.690;4.400;2023-07-31T02:52:58;8.43;;;3.00;;
21492;SDS011;10908;50.690;4.400;2023-07-31T02:55:24;9.35;;;3.38;;
21492;SDS011;10908;50.690;4.400;2023-07-31T02:57:49;9.05;;;3.22;;
21492;SDS011;10908;50.690;4.400;2023-07-31T03:00:17;10.10;;;3.25;;
21492;SDS011;10908;50.690;4.400;2023-07-31T03:02:43;9.20;;;2.95;;
21492;SDS011;10908;50.690;4.400;2023-07-31T03:05:08;8.13;;;3.35;;
21492;SDS011;10908;50.690;4.400;2023-07-31T03:07:34;10.00;;;3.55;;
21492;SDS011;10908;50.690;4.400;2023-07-31T03:09:59;9.98;;;3.28;;
21492;SDS011;10908;50.690;4.400;2023-07-31T03:12:26;8.68;;;3.50;;
21492;SDS011;10908;50.690;4.400;2023-07-31T03:14:52;8.88;;;3.30;;
21492;SDS011;10908;50.690;4.400;2023-07-31T03:17:18;8.55;;;3.40;;
21492;SDS011;10908;50.690;4.400;2023-07-31T03:19:43;6.97;;;3.10;;
21492;SDS011;10908;50.690;4.400;2023-07-31T03:22:09;7.47;;;3.10;;
21492;SDS011;10908;50.690;4.400;2023-07-31T03:24:35;8.02;;;3.20;;
21492;SDS011;10908;50.690;4.400;2023-07-31T03:27:00;10.00;;;3.40;;
21492;SDS011;10908;50.690;4.400;2023-07-31T03:29:26;9.35;;;3.25;;
21492;SDS011;10908;50.690;4.400;2023-07-31T03:31:52;7.10;;;3.10;;
21492;SDS011;10908;50.690;4.400;2023-07-31T03:34:17;8.15;;;2.63;;
21492;SDS011;10908;50.690;4.400;2023-07-31T03:36:43;12.80;;;3.22;;
21492;SDS011;10908;50.690;4.400;2023-07-31T03:39:09;10.48;;;3.22;;
21492;SDS011;10908;50.690;4.400;2023-07-31T03:41:35;7.80;;;3.10;;
21492;SDS011;10908;50.690;4.400;2023-07-31T03:44:00;8.98;;;3.00;;
21492;SDS011;10908;50.690;4.400;2023-07-31T03:46:26;8.40;;;3.55;;
21492;SDS011;10908;50.690;4.400;2023-07-31T03:48:52;9.10;;;3.15;;
21492;SDS011;10908;50.690;4.400;2023-07-31T03:51:17;9.40;;;3.30;;
21492;SDS011;10908;50.690;4.400;2023-07-31T03:53:43;12.93;;;3.40;;
21492;SDS011;10908;50.690;4.400;2023-07-31T03:56:09;7.88;;;3.33;;
21492;SDS011;10908;50.690;4.400;2023-07-31T03:58:34;8.30;;;3.25;;
21492;SDS011;10908;50.690;4.400;2023-07-31T04:01:01;7.18;;;3.30;;
21492;SDS011;10908;50.690;4.400;2023-07-31T04:03:28;11.25;;;3.13;;
21492;SDS011;10908;50.690;4.400;2023-07-31T04:05:54;7.80;;;3.10;;
21492;SDS011;10908;50.690;4.400;2023-07-31T04:08:21;6.05;;;2.45;;
21492;SDS011;10908;50.690;4.400;2023-07-31T04:10:47;7.07;;;3.03;;
21492;SDS011;10908;50.690;4.400;2023-07-31T04:13:13;9.25;;;2.97;;
21492;SDS011;10908;50.690;4.400;2023-07-31T04:15:39;9.45;;;2.83;;
21492;SDS011;10908;50.690;4.400;2023-07-31T04:18:05;7.15;;;2.80;;
21492;SDS011;10908;50.690;4.400;2023-07-31T04:20:31;12.02;;;3.17;;
21492;SDS011;10908;50.690;4.400;2023-07-31T04:22:57;10.70;;;3.20;;
21492;SDS011;10908;50.690;4.400;2023-07-31T04:25:22;9.18;;;2.70;;
21492;SDS011;10908;50.690;4.400;2023-07-31T04:27:48;9.50;;;3.15;;
21492;SDS011;10908;50.690;4.400;2023-07-31T04:30:14;8.68;;;3.00;;
21492;SDS011;10908;50.690;4.400;2023-07-31T04:32:39;7.60;;;2.72;;
21492;SDS011;10908;50.690;4.400;2023-07-31T04:35:05;7.90;;;3.05;;
21492;SDS011;10908;50.690;4.400;2023-07-31T04:37:31;7.93;;;3.00;;
21492;SDS011;10908;50.690;4.400;2023-07-31T04:39:56;8.75;;;2.90;;
21492;SDS011;10908;50.690;4.400;2023-07-31T04:42:22;10.05;;;3.38;;
21492;SDS011;10908;50.690;4.400;2023-07-31T04:44:48;8.40;;;2.92;;
21492;SDS011;10908;50.690;4.400;2023-07-31T04:47:13;8.23;;;2.85;;
21492;SDS011;10908;50.690;4.400;2023-07-31T04:49:39;9.80;;;3.05;;
21492;SDS011;10908;50.690;4.400;2023-07-31T04:52:05;10.40;;;3.10;;
21492;SDS011;10908;50.690;4.400;2023-07-31T04:54:30;8.93;;;2.92;;
21492;SDS011;10908;50.690;4.400;2023-07-31T04:56:56;9.35;;;2.97;;
21492;SDS011;10908;50.690;4.400;2023-07-31T04:59:22;9.93;;;3.03;;
21492;SDS011;10908;50.690;4.400;2023-07-31T05:01:47;9.82;;;3.20;;
21492;SDS011;10908;50.690;4.400;2023-07-31T05:04:13;8.75;;;2.60;;
21492;SDS011;10908;50.690;4.400;2023-07-31T05:06:39;9.15;;;2.85;;
21492;SDS011;10908;50.690;4.400;2023-07-31T05:09:05;10.70;;;2.83;;
21492;SDS011;10908;50.690;4.400;2023-07-31T05:11:31;9.48;;;2.75;;
21492;SDS011;10908;50.690;4.400;2023-07-31T05:13:56;9.20;;;2.90;;
21492;SDS011;10908;50.690;4.400;2023-07-31T05:16:22;7.75;;;2.70;;
21492;SDS011;10908;50.690;4.400;2023-07-31T05:18:48;10.35;;;3.15;;
21492;SDS011;10908;50.690;4.400;2023-07-31T05:21:13;10.27;;;3.17;;
21492;SDS011;10908;50.690;4.400;2023-07-31T05:23:39;8.18;;;2.95;;
21492;SDS011;10908;50.690;4.400;2023-07-31T05:26:05;8.98;;;3.10;;
21492;SDS011;10908;50.690;4.400;2023-07-31T05:28:31;9.00;;;3.30;;
21492;SDS011;10908;50.690;4.400;2023-07-31T05:31:00;8.60;;;3.28;;
21492;SDS011;10908;50.690;4.400;2023-07-31T05:33:26;10.15;;;3.15;;
21492;SDS011;10908;50.690;4.400;2023-07-31T05:35:52;9.68;;;3.22;;
21492;SDS011;10908;50.690;4.400;2023-07-31T05:38:18;7.60;;;3.00;;
21492;SDS011;10908;50.690;4.400;2023-07-31T05:40:44;8.98;;;3.20;;
21492;SDS011;10908;50.690;4.400;2023-07-31T05:43:09;8.95;;;3.10;;
21492;SDS011;10908;50.690;4.400;2023-07-31T05:45:35;8.13;;;3.08;;
21492;SDS011;10908;50.690;4.400;2023-07-31T05:48:02;10.00;;;3.15;;
21492;SDS011;10908;50.690;4.400;2023-07-31T05:50:28;9.73;;;3.13;;
21492;SDS011;10908;50.690;4.400;2023-07-31T05:52:53;9.57;;;3.10;;
21492;SDS011;10908;50.690;4.400;2023-07-31T05:55:19;8.55;;;3.08;;
21492;SDS011;10908;50.690;4.400;2023-07-31T05:57:45;9.07;;;3.22;;
21492;SDS011;10908;50.690;4.400;2023-07-31T06:00:11;10.43;;;3.10;;
21492;SDS011;10908;50.690;4.400;2023-07-31T06:02:38;6.75;;;2.88;;
21492;SDS011;10908;50.690;4.400;2023-07-31T06:05:04;8.20;;;3.00;;
21492;SDS011;10908;50.690;4.400;2023-07-31T06:07:31;8.30;;;2.70;;
21492;SDS011;10908;50.690;4.400;2023-07-31T06:09:57;8.43;;;2.80;;
21492;SDS011;10908;50.690;4.400;2023-07-31T06:12:30;9.73;;;2.78;;
21492;SDS011;10908;50.690;4.400;2023-07-31T06:14:56;9.18;;;3.17;;
21492;SDS011;10908;50.690;4.400;2023-07-31T06:17:22;9.30;;;3.05;;
21492;SDS011;10908;50.690;4.400;2023-07-31T06:19:48;10.07;;;2.67;;
21492;SDS011;10908;50.690;4.400;2023-07-31T06:22:14;10.25;;;3.00;;
21492;SDS011;10908;50.690;4.400;2023-07-31T06:24:39;8.27;;;2.83;;
21492;SDS011;10908;50.690;4.400;2023-07-31T06:27:05;9.20;;;3.25;;
21492;SDS011;10908;50.690;4.400;2023-07-31T06:29:32;7.07;;;2.50;;
21492;SDS011;10908;50.690;4.400;2023-07-31T06:31:57;7.90;;;2.85;;
21492;SDS011;10908;50.690;4.400;2023-07-31T06:34:24;7.93;;;2.92;;
21492;SDS011;10908;50.690;4.400;2023-07-31T06:36:49;12.52;;;2.78;;
21492;SDS011;10908;50.690;4.400;2023-07-31T06:39:15;6.68;;;2.83;;
21492;SDS011;10908;50.690;4.400;2023-07-31T06:41:41;8.70;;;2.72;;
21492;SDS011;10908;50.690;4.400;2023-07-31T06:44:07;7.90;;;2.47;;
21492;SDS011;10908;50.690;4.400;2023-07-31T06:46:33;12.43;;;2.90;;
21492;SDS011;10908;50.690;4.400;2023-07-31T06:48:59;8.35;;;2.88;;
21492;SDS011;10908;50.690;4.400;2023-07-31T06:51:24;11.05;;;2.40;;
21492;SDS011;10908;50.690;4.400;2023-07-31T06:53:50;8.18;;;2.78;;
21492;SDS011;10908;50.690;4.400;2023-07-31T06:56:16;7.78;;;2.25;;
21492;SDS011;10908;50.690;4.400;2023-07-31T06:58:41;10.52;;;2.80;;
21492;SDS011;10908;50.690;4.400;2023-07-31T07:01:07;7.20;;;2.50;;
21492;SDS011;10908;50.690;4.400;2023-07-31T07:03:32;7.80;;;2.55;;
21492;SDS011;10908;50.690;4.400;2023-07-31T07:05:58;7.00;;;2.15;;
21492;SDS011;10908;50.690;4.400;2023-07-31T07:08:24;8.50;;;2.40;;
21492;SDS011;10908;50.690;4.400;2023-07-31T07:10:50;6.93;;;2.63;;
21492;SDS011;10908;50.690;4.400;2023-07-31T07:13:15;8.07;;;2.80;;
21492;SDS011;10908;50.690;4.400;2023-07-31T07:15:43;9.85;;;2.78;;
21492;SDS011;10908;50.690;4.400;2023-07-31T07:18:12;7.47;;;2.40;;
21492;SDS011;10908;50.690;4.400;2023-07-31T07:20:38;6.00;;;2.25;;
21492;SDS011;10908;50.690;4.400;2023-07-31T07:23:04;7.88;;;2.20;;
21492;SDS011;10908;50.690;4.400;2023-07-31T07:25:30;9.55;;;2.60;;
21492;SDS011;10908;50.690;4.400;2023-07-31T07:27:56;7.35;;;2.10;;
21492;SDS011;10908;50.690;4.400;2023-07-31T07:30:21;7.88;;;2.60;;
21492;SDS011;10908;50.690;4.400;2023-07-31T07:32:48;9.80;;;2.70;;
21492;SDS011;10908;50.690;4.400;2023-07-31T07:35:14;7.55;;;2.40;;
21492;SDS011;10908;50.690;4.400;2023-07-31T07:37:40;7.65;;;2.38;;
21492;SDS011;10908;50.690;4.400;2023-07-31T07:40:05;9.73;;;2.50;;
21492;SDS011;10908;50.690;4.400;2023-07-31T07:42:32;6.95;;;2.28;;
21492;SDS011;10908;50.690;4.400;2023-07-31T07:44:57;6.85;;;2.38;;
21492;SDS011;10908;50.690;4.400;2023-07-31T07:47:23;7.85;;;2.35;;
21492;SDS011;10908;50.690;4.400;2023-07-31T07:49:48;7.55;;;2.13;;
21492;SDS011;10908;50.690;4.400;2023-07-31T07:52:14;9.95;;;2.45;;
21492;SDS011;10908;50.690;4.400;2023-07-31T07:54:40;5.78;;;2.42;;
21492;SDS011;10908;50.690;4.400;2023-07-31T07:57:05;8.65;;;2.53;;
21492;SDS011;10908;50.690;4.400;2023-07-31T07:59:31;7.15;;;2.20;;
21492;SDS011;10908;50.690;4.400;2023-07-31T08:01:57;8.45;;;2.38;;
21492;SDS011;10908;50.690;4.400;2023-07-31T08:04:22;6.93;;;2.60;;
21492;SDS011;10908;50.690;4.400;2023-07-31T08:06:48;7.57;;;2.20;;
21492;SDS011;10908;50.690;4.400;2023-07-31T08:09:14;7.53;;;2.33;;
21492;SDS011;10908;50.690;4.400;2023-07-31T08:11:40;7.35;;;2.35;;
21492;SDS011;10908;50.690;4.400;2023-07-31T08:14:05;8.20;;;2.50;;
21492;SDS011;10908;50.690;4.400;2023-07-31T08:16:31;6.65;;;2.40;;
21492;SDS011;10908;50.690;4.400;2023-07-31T08:18:57;8.45;;;2.65;;
21492;SDS011;10908;50.690;4.400;2023-07-31T08:21:23;6.95;;;2.35;;
21492;SDS011;10908;50.690;4.400;2023-07-31T08:23:48;11.82;;;2.70;;
21492;SDS011;10908;50.690;4.400;2023-07-31T08:26:15;9.25;;;2.80;;
21492;SDS011;10908;50.690;4.400;2023-07-31T08:28:41;6.82;;;2.47;;
21492;SDS011;10908;50.690;4.400;2023-07-31T08:31:06;7.00;;;2.33;;
21492;SDS011;10908;50.690;4.400;2023-07-31T08:33:32;8.18;;;2.58;;
21492;SDS011;10908;50.690;4.400;2023-07-31T08:35:57;8.77;;;2.60;;
21492;SDS011;10908;50.690;4.400;2023-07-31T08:38:24;5.80;;;2.30;;
21492;SDS011;10908;50.690;4.400;2023-07-31T08:40:50;5.32;;;2.10;;
21492;SDS011;10908;50.690;4.400;2023-07-31T08:43:16;6.50;;;2.30;;
21492;SDS011;10908;50.690;4.400;2023-07-31T08:45:43;6.15;;;2.35;;
21492;SDS011;10908;50.690;4.400;2023-07-31T08:48:09;6.65;;;2.22;;
21492;SDS011;10908;50.690;4.400;2023-07-31T08:50:37;6.97;;;2.50;;
21492;SDS011;10908;50.690;4.400;2023-07-31T08:53:03;6.20;;;2.13;;
21492;SDS011;10908;50.690;4.400;2023-07-31T08:55:28;7.05;;;2.10;;
21492;SDS011;10908;50.690;4.400;2023-07-31T08:57:56;6.75;;;2.33;;
21492;SDS011;10908;50.690;4.400;2023-07-31T09:00:23;6.38;;;2.17;;
21492;SDS011;10908;50.690;4.400;2023-07-31T09:03:01;6.38;;;2.22;;
21492;SDS011;10908;50.690;4.400;2023-07-31T09:05:29;5.43;;;1.98;;
21492;SDS011;10908;50.690;4.400;2023-07-31T09:07:56;6.78;;;2.28;;
21492;SDS011;10908;50.690;4.400;2023-07-31T09:10:23;8.20;;;2.60;;
21492;SDS011;10908;50.690;4.400;2023-07-31T09:12:50;7.45;;;2.38;;
21492;SDS011;10908;50.690;4.400;2023-07-31T09:15:17;6.03;;;2.28;;
21492;SDS011;10908;50.690;4.400;2023-07-31T09:17:43;7.75;;;2.60;;
21492;SDS011;10908;50.690;4.400;2023-07-31T09:20:16;7.50;;;2.42;;
21492;SDS011;10908;50.690;4.400;2023-07-31T09:22:43;8.13;;;2.65;;
21492;SDS011;10908;50.690;4.400;2023-07-31T09:25:25;7.95;;;3.05;;
21492;SDS011;10908;50.690;4.400;2023-07-31T09:27:54;11.07;;;3.35;;
21492;SDS011;10908;50.690;4.400;2023-07-31T09:30:24;7.43;;;3.30;;
21492;SDS011;10908;50.690;4.400;2023-07-31T09:32:50;7.90;;;2.95;;
21492;SDS011;10908;50.690;4.400;2023-07-31T09:35:31;8.73;;;3.20;;
21492;SDS011;10908;50.690;4.400;2023-07-31T09:37:59;12.57;;;3.22;;
21492;SDS011;10908;50.690;4.400;2023-07-31T09:40:36;8.25;;;2.35;;
21492;SDS011;10908;50.690;4.400;2023-07-31T09:43:06;8.85;;;3.08;;
21492;SDS011;10908;50.690;4.400;2023-07-31T09:45:34;8.82;;;2.90;;
21492;SDS011;10908;50.690;4.400;2023-07-31T09:48:10;9.95;;;3.15;;
21492;SDS011;10908;50.690;4.400;2023-07-31T09:50:44;8.40;;;2.97;;
21492;SDS011;10908;50.690;4.400;2023-07-31T09:53:11;9.23;;;3.33;;
21492;SDS011;10908;50.690;4.400;2023-07-31T09:55:37;9.38;;;3.17;;
21492;SDS011;10908;50.690;4.400;2023-07-31T09:58:04;8.55;;;3.10;;
21492;SDS011;10908;50.690;4.400;2023-07-31T10:00:32;10.02;;;3.75;;
21492;SDS011;10908;50.690;4.400;2023-07-31T10:02:58;8.88;;;3.15;;
21492;SDS011;10908;50.690;4.400;2023-07-31T10:05:34;12.18;;;3.75;;
21492;SDS011;10908;50.690;4.400;2023-07-31T10:08:01;9.73;;;3.28;;
21492;SDS011;10908;50.690;4.400;2023-07-31T10:10:28;11.45;;;3.20;;
21492;SDS011;10908;50.690;4.400;2023-07-31T10:12:54;9.02;;;3.22;;
21492;SDS011;10908;50.690;4.400;2023-07-31T10:15:22;12.02;;;3.55;;
21492;SDS011;10908;50.690;4.400;2023-07-31T10:17:49;9.02;;;3.50;;
21492;SDS011;10908;50.690;4.400;2023-07-31T10:20:15;9.73;;;3.30;;
21492;SDS011;10908;50.690;4.400;2023-07-31T10:22:42;9.52;;;3.30;;
21492;SDS011;10908;50.690;4.400;2023-07-31T10:25:08;10.02;;;3.60;;
21492;SDS011;10908;50.690;4.400;2023-07-31T10:27:40;10.27;;;3.78;;
21492;SDS011;10908;50.690;4.400;2023-07-31T10:30:11;12.55;;;3.60;;
21492;SDS011;10908;50.690;4.400;2023-07-31T10:32:40;9.60;;;3.33;;
21492;SDS011;10908;50.690;4.400;2023-07-31T10:35:08;13.25;;;3.70;;
21492;SDS011;10908;50.690;4.400;2023-07-31T10:37:38;9.02;;;3.40;;
21492;SDS011;10908;50.690;4.400;2023-07-31T10:40:17;11.98;;;3.13;;
21492;SDS011;10908;50.690;4.400;2023-07-31T10:42:48;9.15;;;3.50;;
21492;SDS011;10908;50.690;4.400;2023-07-31T10:45:25;10.65;;;3.50;;
21492;SDS011;10908;50.690;4.400;2023-07-31T10:48:02;11.52;;;3.30;;
21492;SDS011;10908;50.690;4.400;2023-07-31T10:50:29;10.93;;;3.50;;
21492;SDS011;10908;50.690;4.400;2023-07-31T10:52:57;11.43;;;3.67;;
21492;SDS011;10908;50.690;4.400;2023-07-31T10:55:26;12.88;;;3.50;;
21492;SDS011;10908;50.690;4.400;2023-07-31T10:58:22;8.88;;;3.33;;
21492;SDS011;10908;50.690;4.400;2023-07-31T11:00:48;8.15;;;3.08;;
21492;SDS011;10908;50.690;4.400;2023-07-31T11:03:15;11.55;;;3.40;;
21492;SDS011;10908;50.690;4.400;2023-07-31T11:06:02;9.68;;;3.38;;
21492;SDS011;10908;50.690;4.400;2023-07-31T11:08:32;9.68;;;3.30;;
21492;SDS011;10908;50.690;4.400;2023-07-31T11:13:27;10.88;;;3.80;;
21492;SDS011;10908;50.690;4.400;2023-07-31T11:15:53;9.10;;;3.30;;
21492;SDS011;10908;50.690;4.400;2023-07-31T11:18:19;11.07;;;3.80;;
21492;SDS011;10908;50.690;4.400;2023-07-31T11:20:45;10.15;;;3.67;;
21492;SDS011;10908;50.690;4.400;2023-07-31T11:23:10;9.20;;;3.45;;
21492;SDS011;10908;50.690;4.400;2023-07-31T11:25:37;10.55;;;3.70;;
21492;SDS011;10908;50.690;4.400;2023-07-31T11:28:10;9.90;;;3.45;;
21492;SDS011;10908;50.690;4.400;2023-07-31T11:30:38;12.68;;;3.60;;
21492;SDS011;10908;50.690;4.400;2023-07-31T11:33:06;12.40;;;3.50;;
21492;SDS011;10908;50.690;4.400;2023-07-31T11:35:33;10.85;;;3.67;;
21492;SDS011;10908;50.690;4.400;2023-07-31T11:38:00;10.38;;;3.20;;
21492;SDS011;10908;50.690;4.400;2023-07-31T11:40:26;10.50;;;3.78;;
21492;SDS011;10908;50.690;4.400;2023-07-31T11:42:57;10.52;;;3.28;;
21492;SDS011;10908;50.690;4.400;2023-07-31T11:45:24;10.40;;;3.25;;
21492;SDS011;10908;50.690;4.400;2023-07-31T11:47:51;10.07;;;3.13;;
21492;SDS011;10908;50.690;4.400;2023-07-31T11:50:18;11.70;;;3.70;;
21492;SDS011;10908;50.690;4.400;2023-07-31T11:52:44;10.45;;;3.25;;
21492;SDS011;10908;50.690;4.400;2023-07-31T11:55:11;10.18;;;3.75;;
21492;SDS011;10908;50.690;4.400;2023-07-31T11:57:38;11.77;;;3.30;;
21492;SDS011;10908;50.690;4.400;2023-07-31T12:00:06;10.65;;;3.80;;
21492;SDS011;10908;50.690;4.400;2023-07-31T12:02:35;11.43;;;3.70;;
21492;SDS011;10908;50.690;4.400;2023-07-31T12:05:02;9.57;;;3.30;;
21492;SDS011;10908;50.690;4.400;2023-07-31T12:07:42;9.50;;;3.30;;
21492;SDS011;10908;50.690;4.400;2023-07-31T12:10:22;10.07;;;3.45;;
21492;SDS011;10908;50.690;4.400;2023-07-31T12:12:55;9.38;;;3.70;;
21492;SDS011;10908;50.690;4.400;2023-07-31T12:15:32;12.02;;;3.67;;
21492;SDS011;10908;50.690;4.400;2023-07-31T12:17:58;7.93;;;3.45;;
21492;SDS011;10908;50.690;4.400;2023-07-31T12:20:24;11.73;;;3.60;;
21492;SDS011;10908;50.690;4.400;2023-07-31T12:22:50;8.13;;;3.92;;
21492;SDS011;10908;50.690;4.400;2023-07-31T12:25:15;9.43;;;3.45;;
21492;SDS011;10908;50.690;4.400;2023-07-31T12:27:44;11.05;;;4.07;;
21492;SDS011;10908;50.690;4.400;2023-07-31T12:30:26;11.05;;;3.88;;
21492;SDS011;10908;50.690;4.400;2023-07-31T12:32:53;11.68;;;4.10;;
21492;SDS011;10908;50.690;4.400;2023-07-31T12:35:18;11.27;;;3.95;;
21492;SDS011;10908;50.690;4.400;2023-07-31T12:37:44;14.80;;;4.50;;
21492;SDS011;10908;50.690;4.400;2023-07-31T12:40:10;12.45;;;4.45;;
21492;SDS011;10908;50.690;4.400;2023-07-31T12:42:36;11.32;;;3.70;;
21492;SDS011;10908;50.690;4.400;2023-07-31T12:45:01;10.73;;;4.07;;
21492;SDS011;10908;50.690;4.400;2023-07-31T12:47:28;11.40;;;3.83;;
21492;SDS011;10908;50.690;4.400;2023-07-31T12:49:54;12.85;;;4.10;;
21492;SDS011;10908;50.690;4.400;2023-07-31T12:52:20;15.10;;;4.00;;
21492;SDS011;10908;50.690;4.400;2023-07-31T12:54:46;13.90;;;3.70;;
21492;SDS011;10908;50.690;4.400;2023-07-31T12:57:11;11.75;;;3.75;;
21492;SDS011;10908;50.690;4.400;2023-07-31T12:59:37;14.38;;;4.10;;
21492;SDS011;10908;50.690;4.400;2023-07-31T13:02:02;11.93;;;4.05;;
21492;SDS011;10908;50.690;4.400;2023-07-31T13:04:28;10.95;;;3.80;;
21492;SDS011;10908;50.690;4.400;2023-07-31T13:06:54;10.35;;;3.28;;
21492;SDS011;10908;50.690;4.400;2023-07-31T13:09:20;10.50;;;3.58;;
21492;SDS011;10908;50.690;4.400;2023-07-31T13:11:45;8.65;;;3.08;;
21492;SDS011;10908;50.690;4.400;2023-07-31T13:14:11;10.07;;;3.13;;
21492;SDS011;10908;50.690;4.400;2023-07-31T13:16:37;9.40;;;2.70;;
21492;SDS011;10908;50.690;4.400;2023-07-31T13:19:02;8.07;;;2.58;;
21492;SDS011;10908;50.690;4.400;2023-07-31T13:21:28;6.90;;;2.60;;
21492;SDS011;10908;50.690;4.400;2023-07-31T13:23:54;6.55;;;2.47;;
21492;SDS011;10908;50.690;4.400;2023-07-31T13:26:22;7.50;;;2.60;;
21492;SDS011;10908;50.690;4.400;2023-07-31T13:28:48;7.78;;;2.70;;
21492;SDS011;10908;50.690;4.400;2023-07-31T13:31:14;7.15;;;2.53;;
21492;SDS011;10908;50.690;4.400;2023-07-31T13:33:39;6.03;;;2.30;;
21492;SDS011;10908;50.690;4.400;2023-07-31T13:36:05;6.63;;;2.28;;
21492;SDS011;10908;50.690;4.400;2023-07-31T13:38:31;7.78;;;2.63;;
21492;SDS011;10908;50.690;4.400;2023-07-31T13:40:56;8.88;;;2.95;;
21492;SDS011;10908;50.690;4.400;2023-07-31T13:43:22;7.68;;;3.03;;
21492;SDS011;10908;50.690;4.400;2023-07-31T13:45:47;10.05;;;2.65;;
21492;SDS011;10908;50.690;4.400;2023-07-31T13:48:13;7.15;;;2.67;;
21492;SDS011;10908;50.690;4.400;2023-07-31T13:50:38;7.30;;;2.42;;
21492;SDS011;10908;50.690;4.400;2023-07-31T13:53:04;8.52;;;2.60;;
21492;SDS011;10908;50.690;4.400;2023-07-31T13:55:29;6.82;;;2.58;;
21492;SDS011;10908;50.690;4.400;2023-07-31T13:57:55;7.30;;;2.75;;
21492;SDS011;10908;50.690;4.400;2023-07-31T14:00:21;7.63;;;2.55;;
21492;SDS011;10908;50.690;4.400;2023-07-31T14:02:47;8.63;;;2.65;;
21492;SDS011;10908;50.690;4.400;2023-07-31T14:05:12;6.57;;;2.50;;
21492;SDS011;10908;50.690;4.400;2023-07-31T14:07:38;7.80;;;2.53;;
21492;SDS011;10908;50.690;4.400;2023-07-31T14:10:04;7.30;;;2.67;;
21492;SDS011;10908;50.690;4.400;2023-07-31T14:12:30;10.13;;;3.40;;
21492;SDS011;10908;50.690;4.400;2023-07-31T14:14:55;6.22;;;2.40;;
21492;SDS011;10908;50.690;4.400;2023-07-31T14:17:21;6.30;;;2.40;;
21492;SDS011;10908;50.690;4.400;2023-07-31T14:19:47;7.18;;;2.85;;
21492;SDS011;10908;50.690;4.400;2023-07-31T14:22:12;8.18;;;2.70;;
21492;SDS011;10908;50.690;4.400;2023-07-31T14:24:38;6.20;;;2.40;;
21492;SDS011;10908;50.690;4.400;2023-07-31T14:27:04;7.78;;;2.10;;
21492;SDS011;10908;50.690;4.400;2023-07-31T14:29:30;6.43;;;2.30;;
21492;SDS011;10908;50.690;4.400;2023-07-31T14:31:55;6.25;;;2.40;;
21492;SDS011;10908;50.690;4.400;2023-07-31T14:34:21;5.93;;;2.38;;
21492;SDS011;10908;50.690;4.400;2023-07-31T14:36:47;5.30;;;2.13;;
21492;SDS011;10908;50.690;4.400;2023-07-31T14:39:12;5.32;;;1.77;;
21492;SDS011;10908;50.690;4.400;2023-07-31T14:41:38;4.95;;;2.00;;
21492;SDS011;10908;50.690;4.400;2023-07-31T14:44:04;5.05;;;2.10;;
21492;SDS011;10908;50.690;4.400;2023-07-31T14:46:29;4.68;;;1.90;;